Terminal Aerodrome Forecast
Issued by NWS

Home | Current Version | Previous Version | Text Only | Print | Product List | Glossary On
Versions: 1 2 3 4 5 6 7 8 9 10 11 12 13 14 15 16 17
000
FTAK31 PAJN 201100
TAFAGY
TAF
PAGY 201121Z 2012/2112 VRB05KT P6SM -SHRA SCT025 OVC050
     FM201700 21006KT P6SM -SHRA SCT015 OVC030
     FM202000 21010KT P6SM -SHRA SCT020 OVC035
     FM202300 21011G18KT P6SM VCSH OVC050
     FM210500 21011KT P6SM VCSH SCT040 OVC050
     FM210700 21004KT P6SM VCSH SCT030 BKN060
      AMD LTD TO CLD VIS AND WIND=

USA.gov is the U.S. government's official web portal to all federal, state and local government web resources and services.